Time;durP1;ratioP1;P1;durP2;ratioP2;P2;SDS_P1;SDS_P2;PMS_P1;PMS_P2;Temp;Humidity;BMP_temperature;BMP_pressure;BME280_temperature;BME280_humidity;BME280_pressure;Samples;Min_cycle;Max_cycle;Signal;HPM_P1;HPM_P2
2023/04/27 00:01:57;;;;;;;6.50;4.82;;;9.90;99.30;;;;;;6137650;23;20306;-72
2023/04/27 00:04:24;;;;;;;5.90;4.72;;;9.80;99.60;;;;;;6138926;23;20217;-72
2023/04/27 00:06:52;;;;;;;7.68;5.47;;;9.70;99.90;;;;;;6136641;23;20202;-72
2023/04/27 00:09:19;;;;;;;5.78;5.05;;;9.60;99.90;;;;;;6139168;23;20243;-72
2023/04/27 00:11:46;;;;;;;5.38;4.70;;;9.60;99.90;;;;;;6133938;23;20216;-72
2023/04/27 00:14:13;;;;;;;6.65;5.07;;;9.50;99.90;;;;;;6141273;23;20203;-72
2023/04/27 00:16:40;;;;;;;8.23;5.60;;;9.50;99.90;;;;;;6140579;23;20205;-72
2023/04/27 00:19:07;;;;;;;5.72;4.95;;;9.40;99.90;;;;;;6134623;23;20274;-72
2023/04/27 00:21:35;;;;;;;4.80;4.38;;;9.20;99.90;;;;;;6139594;23;20674;-72
2023/04/27 00:24:03;;;;;;;5.63;5.13;;;9.10;99.90;;;;;;6139259;23;20190;-72
2023/04/27 00:26:30;;;;;;;6.05;5.25;;;9.10;99.90;;;;;;6138445;23;20325;-72
2023/04/27 00:28:57;;;;;;;6.13;4.35;;;9.20;99.90;;;;;;6133823;23;20184;-72
2023/04/27 00:31:24;;;;;;;5.30;4.75;;;9.20;99.90;;;;;;6132922;23;20703;-72
2023/04/27 00:33:51;;;;;;;5.15;4.75;;;9.30;99.90;;;;;;6134026;23;20190;-72
2023/04/27 00:36:18;;;;;;;6.05;4.93;;;9.40;99.90;;;;;;6138375;23;20181;-72
2023/04/27 00:38:45;;;;;;;4.65;4.22;;;9.40;99.90;;;;;;6146825;23;20186;-72
2023/04/27 00:41:14;;;;;;;6.40;4.60;;;9.50;99.90;;;;;;6139684;23;20634;-72
2023/04/27 00:43:45;;;;;;;5.25;4.72;;;9.50;99.90;;;;;;6140726;23;20708;-72
2023/04/27 00:46:13;;;;;;;5.30;4.18;;;9.50;99.90;;;;;;6143268;23;20264;-72
2023/04/27 00:48:41;;;;;;;8.35;4.32;;;9.40;99.90;;;;;;6144335;23;20189;-72
2023/04/27 00:51:08;;;;;;;4.55;4.15;;;9.40;99.90;;;;;;6132872;23;20187;-72
2023/04/27 00:53:36;;;;;;;4.70;4.25;;;9.40;99.90;;;;;;6138696;23;20193;-72
2023/04/27 00:56:04;;;;;;;5.75;4.45;;;9.40;99.90;;;;;;6130860;23;20215;-72
2023/04/27 00:58:32;;;;;;;6.32;4.60;;;9.40;99.90;;;;;;6142297;23;20236;-72
2023/04/27 01:01:00;;;;;;;4.60;4.20;;;9.40;99.90;;;;;;6132971;23;20263;-72
2023/04/27 01:03:27;;;;;;;5.38;4.82;;;9.40;99.90;;;;;;6129972;23;20218;-72
2023/04/27 01:05:55;;;;;;;7.05;5.00;;;9.50;99.90;;;;;;6133260;23;20190;-72
2023/04/27 01:08:22;;;;;;;5.78;4.75;;;9.40;99.90;;;;;;6128450;23;20183;-72
2023/04/27 01:10:49;;;;;;;4.95;4.45;;;9.40;99.90;;;;;;6129970;23;20205;-72
2023/04/27 01:13:16;;;;;;;5.50;4.90;;;9.30;99.90;;;;;;6140440;23;20298;-72
2023/04/27 01:15:45;;;;;;;7.22;5.38;;;9.20;99.90;;;;;;6132433;23;20182;-72
2023/04/27 01:18:12;;;;;;;5.53;4.78;;;9.20;99.90;;;;;;6130687;23;20258;-71
2023/04/27 01:20:41;;;;;;;5.70;4.93;;;9.20;99.90;;;;;;6134374;23;20219;-72
2023/04/27 01:23:08;;;;;;;6.13;5.60;;;9.10;99.90;;;;;;6132349;23;20223;-72
2023/04/27 01:25:36;;;;;;;5.75;5.13;;;9.10;99.90;;;;;;6123947;23;20213;-71
2023/04/27 01:28:03;;;;;;;6.13;5.53;;;9.10;99.90;;;;;;6128363;23;20265;-72
2023/04/27 01:30:30;;;;;;;7.05;5.28;;;9.00;99.90;;;;;;6125350;23;20186;-72
2023/04/27 01:32:57;;;;;;;5.60;5.10;;;9.00;99.90;;;;;;6137100;23;20229;-71
2023/04/27 01:35:24;;;;;;;5.13;4.72;;;9.00;99.90;;;;;;6135469;23;20278;-71
2023/04/27 01:37:51;;;;;;;7.13;4.90;;;9.00;99.90;;;;;;6139112;23;20223;-71
2023/04/27 01:40:18;;;;;;;5.75;5.25;;;9.00;99.90;;;;;;6135277;23;20545;-71
2023/04/27 01:42:47;;;;;;;5.30;4.80;;;9.00;99.90;;;;;;6129208;23;20226;-71
2023/04/27 01:45:14;;;;;;;6.32;5.07;;;9.00;99.90;;;;;;6133640;23;20219;-72
2023/04/27 01:47:41;;;;;;;5.70;4.95;;;9.00;99.90;;;;;;6132654;23;20232;-72
2023/04/27 01:50:09;;;;;;;5.10;4.60;;;9.00;99.90;;;;;;6132550;23;20598;-72
2023/04/27 01:52:36;;;;;;;5.30;4.72;;;9.00;99.90;;;;;;6138947;23;20213;-71
2023/04/27 01:55:03;;;;;;;5.80;5.15;;;9.00;99.90;;;;;;6129366;23;20631;-71
2023/04/27 01:57:30;;;;;;;5.22;4.75;;;8.90;99.90;;;;;;6132583;23;20689;-71
2023/04/27 01:59:59;;;;;;;5.22;4.70;;;8.90;99.90;;;;;;6127899;23;20274;-72
2023/04/27 02:02:26;;;;;;;5.28;4.85;;;8.90;99.90;;;;;;6130242;23;20231;-71
2023/04/27 02:04:53;;;;;;;5.70;4.60;;;8.80;99.90;;;;;;6136735;23;20182;-71
2023/04/27 02:07:20;;;;;;;5.60;5.10;;;8.80;99.90;;;;;;6140092;23;20236;-71
2023/04/27 02:09:47;;;;;;;5.38;4.72;;;8.80;99.90;;;;;;6135883;23;20227;-72
2023/04/27 02:12:14;;;;;;;5.95;5.25;;;8.80;99.90;;;;;;6134002;23;20199;-71
2023/04/27 02:14:41;;;;;;;5.85;5.32;;;8.80;99.90;;;;;;6130042;23;20698;-72
2023/04/27 02:17:09;;;;;;;6.22;5.55;;;8.90;99.90;;;;;;6145905;23;20178;-72
2023/04/27 02:19:36;;;;;;;5.85;5.20;;;8.90;99.90;;;;;;6144054;23;20191;-71
2023/04/27 02:22:04;;;;;;;6.50;5.30;;;8.90;99.90;;;;;;6132506;23;20209;-72
2023/04/27 02:24:30;;;;;;;5.65;5.07;;;8.90;99.90;;;;;;6140546;23;20218;-72
2023/04/27 02:26:58;;;;;;;6.00;4.85;;;8.90;99.90;;;;;;6137808;23;20213;-72
2023/04/27 02:29:29;;;;;;;7.03;5.43;;;8.90;99.90;;;;;;6137492;23;20197;-72
2023/04/27 02:31:56;;;;;;;8.63;5.38;;;8.90;99.90;;;;;;6134920;23;20202;-72
2023/04/27 02:34:25;;;;;;;6.22;5.63;;;8.90;99.90;;;;;;6139942;23;20348;-71
2023/04/27 02:36:52;;;;;;;5.65;5.13;;;8.90;99.90;;;;;;6146435;23;20196;-71
2023/04/27 02:39:18;;;;;;;5.90;5.40;;;8.90;99.90;;;;;;6136487;23;20181;-71
2023/04/27 02:41:46;;;;;;;5.78;5.20;;;8.80;99.90;;;;;;6134999;23;20215;-71
2023/04/27 02:44:12;;;;;;;6.65;6.05;;;8.80;99.90;;;;;;6143673;23;20250;-71
2023/04/27 02:46:39;;;;;;;5.60;5.10;;;8.70;99.90;;;;;;6137776;23;20210;-71
2023/04/27 02:49:07;;;;;;;6.15;5.65;;;8.70;99.90;;;;;;6147921;23;20275;-72
2023/04/27 02:51:35;;;;;;;6.63;5.80;;;8.60;99.90;;;;;;6133609;23;20206;-71
2023/04/27 02:54:02;;;;;;;5.65;4.90;;;8.50;99.90;;;;;;6138274;23;20195;-72
2023/04/27 02:56:29;;;;;;;5.40;4.90;;;8.40;99.90;;;;;;6131230;23;20242;-71
2023/04/27 02:58:56;;;;;;;5.97;5.38;;;8.40;99.90;;;;;;6142237;23;20273;-71
2023/04/27 03:01:23;;;;;;;6.15;5.60;;;8.40;99.90;;;;;;6138598;23;20209;-72
2023/04/27 03:03:50;;;;;;;6.40;5.90;;;8.40;99.90;;;;;;6140356;23;20263;-72
2023/04/27 03:06:17;;;;;;;6.80;5.70;;;8.50;99.90;;;;;;6141316;23;20216;-72
2023/04/27 03:08:45;;;;;;;6.05;5.45;;;8.50;99.90;;;;;;6136359;23;20193;-72
2023/04/27 03:11:13;;;;;;;6.32;5.80;;;8.50;99.90;;;;;;6133215;23;20205;-71
2023/04/27 03:13:41;;;;;;;6.68;6.03;;;8.50;99.90;;;;;;6142392;23;20235;-72
2023/04/27 03:16:10;;;;;;;6.35;5.75;;;8.50;99.90;;;;;;6142374;23;20208;-71
2023/04/27 03:18:37;;;;;;;7.35;6.22;;;8.50;99.90;;;;;;6133023;23;20265;-71
2023/04/27 03:21:08;;;;;;;6.90;6.32;;;8.50;99.90;;;;;;6139651;23;20189;-72
2023/04/27 03:23:35;;;;;;;6.60;6.00;;;8.50;99.90;;;;;;6137371;23;20644;-72
2023/04/27 03:26:07;;;;;;;6.82;6.13;;;8.50;99.90;;;;;;6141993;23;20220;-72
2023/04/27 03:28:34;;;;;;;7.20;6.60;;;8.50;99.90;;;;;;6136082;23;20188;-72
2023/04/27 03:31:04;;;;;;;8.38;5.25;;;8.40;99.90;;;;;;6141643;23;20268;-71
2023/04/27 03:33:32;;;;;;;6.82;6.13;;;8.30;99.90;;;;;;6140088;23;20213;-72
2023/04/27 03:35:59;;;;;;;6.53;5.93;;;8.30;99.90;;;;;;6129148;23;20649;-71
2023/04/27 03:38:27;;;;;;;6.40;5.80;;;8.20;99.90;;;;;;6128389;23;20189;-72
2023/04/27 03:40:54;;;;;;;7.95;6.20;;;8.10;99.90;;;;;;6142481;23;20657;-71
2023/04/27 03:43:24;;;;;;;6.88;6.18;;;8.10;99.90;;;;;;6129083;23;20542;-71
2023/04/27 03:45:51;;;;;;;6.90;6.22;;;8.00;99.90;;;;;;6128894;23;20193;-72
2023/04/27 03:48:19;;;;;;;6.40;5.85;;;7.90;99.90;;;;;;6141781;23;20196;-72
2023/04/27 03:50:46;;;;;;;6.20;5.70;;;7.90;99.90;;;;;;6143504;23;20204;-71
2023/04/27 03:53:13;;;;;;;7.55;5.78;;;7.90;99.90;;;;;;6141450;23;20260;-71
2023/04/27 03:55:41;;;;;;;6.70;5.80;;;7.90;99.90;;;;;;6129197;23;20193;-71
2023/04/27 03:58:10;;;;;;;6.53;5.47;;;7.90;99.90;;;;;;6144809;23;20291;-71
2023/04/27 04:00:38;;;;;;;6.60;6.00;;;7.90;99.90;;;;;;6146076;23;20185;-71
2023/04/27 04:03:07;;;;;;;6.45;5.95;;;7.90;99.90;;;;;;6136467;23;20267;-73
2023/04/27 04:05:34;;;;;;;6.55;5.70;;;8.30;99.90;;;;;;6147343;23;20220;-71
2023/04/27 04:08:02;;;;;;;7.72;5.57;;;8.00;99.90;;;;;;6146600;23;21106;-71
2023/04/27 04:10:29;;;;;;;6.15;5.60;;;8.00;99.90;;;;;;6133142;23;20188;-71
2023/04/27 04:12:56;;;;;;;6.13;5.45;;;8.10;99.90;;;;;;6138219;23;20719;-73
2023/04/27 04:15:23;;;;;;;5.88;5.35;;;8.00;99.90;;;;;;6134620;23;20533;-72
2023/04/27 04:17:52;;;;;;;6.78;6.18;;;8.10;99.90;;;;;;6139037;23;20187;-72
2023/04/27 04:20:19;;;;;;;7.88;5.35;;;8.10;99.90;;;;;;6149411;23;20193;-71
2023/04/27 04:22:46;;;;;;;5.90;5.40;;;8.10;99.90;;;;;;6148056;23;20207;-71
2023/04/27 04:25:13;;;;;;;7.38;5.93;;;8.00;99.90;;;;;;6127826;23;20215;-71
2023/04/27 04:27:40;;;;;;;6.47;5.75;;;8.00;99.90;;;;;;6144088;23;20652;-73
2023/04/27 04:30:08;;;;;;;6.20;5.60;;;7.90;99.90;;;;;;6137458;23;20271;-71
2023/04/27 04:32:36;;;;;;;6.80;6.10;;;7.90;99.90;;;;;;6139161;23;20208;-71
2023/04/27 04:35:06;;;;;;;6.32;5.72;;;7.90;99.90;;;;;;6119685;23;20197;-71
2023/04/27 04:37:34;;;;;;;6.43;5.82;;;7.90;99.90;;;;;;6125701;23;20190;-71
2023/04/27 04:40:07;;;;;;;7.18;6.00;;;7.90;99.90;;;;;;6133005;23;20185;-71
2023/04/27 04:42:35;;;;;;;6.70;6.10;;;7.80;99.90;;;;;;6124969;23;20222;-71
2023/04/27 04:45:03;;;;;;;6.43;5.82;;;7.90;99.90;;;;;;6144201;23;20260;-71
2023/04/27 04:47:32;;;;;;;6.35;5.60;;;7.80;99.90;;;;;;6135870;23;20205;-70
2023/04/27 04:50:00;;;;;;;6.50;6.00;;;7.80;99.90;;;;;;6143464;23;20195;-71
2023/04/27 04:52:28;;;;;;;8.02;6.45;;;7.70;99.90;;;;;;6135846;23;20211;-71
2023/04/27 04:54:55;;;;;;;6.35;5.75;;;7.60;99.90;;;;;;6138590;23;22042;-71
2023/04/27 04:57:22;;;;;;;6.85;6.10;;;7.70;99.90;;;;;;6144697;23;20275;-71
2023/04/27 04:59:50;;;;;;;7.15;6.45;;;7.70;99.90;;;;;;6148322;23;20217;-71
2023/04/27 05:02:17;;;;;;;7.97;7.18;;;7.70;99.90;;;;;;6133953;23;20290;-71
2023/04/27 05:04:44;;;;;;;6.88;5.82;;;7.80;99.90;;;;;;6131886;23;20299;-71
2023/04/27 05:07:11;;;;;;;5.75;5.25;;;7.80;99.90;;;;;;6125379;23;20913;-71
2023/04/27 05:09:40;;;;;;;7.15;6.53;;;7.80;99.90;;;;;;6137414;23;20583;-71
2023/04/27 05:12:07;;;;;;;6.97;6.05;;;7.80;99.90;;;;;;6134817;23;20199;-71
2023/04/27 05:14:35;;;;;;;6.72;6.10;;;7.80;99.90;;;;;;6144017;23;20559;-71
2023/04/27 05:17:02;;;;;;;8.65;6.00;;;7.80;99.90;;;;;;6138309;23;20222;-71
2023/04/27 05:19:29;;;;;;;7.03;6.43;;;7.80;99.90;;;;;;6142174;23;20272;-71
2023/04/27 05:21:58;;;;;;;6.97;6.25;;;7.80;99.90;;;;;;6133782;23;20215;-71
2023/04/27 05:24:25;;;;;;;7.00;6.35;;;7.80;99.90;;;;;;6133158;23;20208;-71
2023/04/27 05:26:53;;;;;;;6.88;5.88;;;7.80;99.90;;;;;;6141234;23;20198;-72
2023/04/27 05:29:21;;;;;;;6.47;5.88;;;7.80;99.90;;;;;;6138586;23;20207;-71
2023/04/27 05:31:48;;;;;;;6.43;5.90;;;7.90;99.90;;;;;;6140752;23;20216;-71
2023/04/27 05:34:15;;;;;;;6.75;6.15;;;7.90;99.90;;;;;;6135460;23;20220;-71
2023/04/27 05:36:43;;;;;;;6.75;6.05;;;8.00;99.90;;;;;;6149267;23;20212;-71
2023/04/27 05:39:10;;;;;;;7.00;6.32;;;8.00;99.90;;;;;;6141435;23;20193;-71
2023/04/27 05:41:37;;;;;;;8.80;6.70;;;8.00;99.90;;;;;;6147266;23;20209;-71
2023/04/27 05:44:06;;;;;;;6.78;6.28;;;8.10;99.90;;;;;;6133772;23;20546;-71
2023/04/27 05:46:33;;;;;;;6.32;5.72;;;8.10;99.90;;;;;;6141302;23;20184;-71
2023/04/27 05:49:00;;;;;;;6.60;5.93;;;8.10;99.90;;;;;;6140226;23;20178;-71
2023/04/27 05:51:28;;;;;;;7.15;6.45;;;8.10;99.90;;;;;;6138753;23;20207;-72
2023/04/27 05:53:55;;;;;;;6.43;5.82;;;8.20;99.90;;;;;;6144421;23;20213;-72
2023/04/27 05:56:22;;;;;;;7.18;6.47;;;8.30;99.90;;;;;;6131513;23;20269;-72
2023/04/27 05:58:50;;;;;;;7.53;6.75;;;8.40;99.90;;;;;;6134473;23;20301;-71
2023/04/27 06:01:18;;;;;;;9.95;6.88;;;8.40;99.90;;;;;;6140499;23;20201;-71
2023/04/27 06:03:45;;;;;;;8.93;6.22;;;8.30;99.90;;;;;;6143939;23;20193;-71
2023/04/27 06:06:13;;;;;;;6.85;6.20;;;8.30;99.90;;;;;;6129027;23;20266;-72
2023/04/27 06:08:40;;;;;;;7.20;6.60;;;8.30;99.90;;;;;;6149160;23;20703;-72
2023/04/27 06:11:07;;;;;;;6.95;6.05;;;8.50;99.90;;;;;;6141871;23;20230;-72
2023/04/27 06:13:34;;;;;;;7.85;7.00;;;8.60;99.90;;;;;;6142033;23;20265;-72
2023/04/27 06:16:01;;;;;;;6.72;6.10;;;8.70;99.90;;;;;;6143986;23;20277;-72
2023/04/27 06:18:30;;;;;;;7.18;6.47;;;8.70;99.90;;;;;;6140690;23;20191;-72
2023/04/27 06:21:01;;;;;;;7.65;6.63;;;8.90;99.90;;;;;;6142767;23;20212;-72
2023/04/27 06:23:28;;;;;;;8.23;6.55;;;8.90;99.90;;;;;;6121148;23;20186;-72
2023/04/27 06:25:55;;;;;;;7.57;6.88;;;8.90;99.90;;;;;;6130928;23;20217;-72
2023/04/27 06:28:22;;;;;;;8.82;6.28;;;8.80;99.90;;;;;;6129012;23;20241;-72
2023/04/27 06:30:49;;;;;;;7.20;6.50;;;8.90;99.90;;;;;;6146311;23;20239;-72
2023/04/27 06:33:16;;;;;;;11.68;6.80;;;9.00;99.90;;;;;;6145579;23;20221;-72
2023/04/27 06:35:45;;;;;;;6.75;6.15;;;9.10;99.90;;;;;;6140547;23;20197;-72
2023/04/27 06:38:12;;;;;;;7.32;6.72;;;9.10;99.90;;;;;;6141085;23;20399;-72
2023/04/27 06:40:40;;;;;;;8.30;6.40;;;9.20;99.90;;;;;;6136872;23;20657;-71
2023/04/27 06:43:07;;;;;;;7.05;6.45;;;9.30;99.90;;;;;;6141753;23;20191;-71
2023/04/27 06:45:34;;;;;;;7.25;6.55;;;9.40;99.90;;;;;;6132982;23;20289;-72
2023/04/27 06:48:01;;;;;;;8.18;7.47;;;9.50;99.90;;;;;;6148490;23;20194;-72
2023/04/27 06:50:29;;;;;;;7.18;6.38;;;9.50;99.90;;;;;;6143335;23;20190;-72
2023/04/27 06:52:57;;;;;;;9.77;6.90;;;9.60;99.90;;;;;;6133779;23;20203;-72
2023/04/27 06:55:24;;;;;;;7.35;6.32;;;9.60;99.90;;;;;;6145759;23;20266;-72
2023/04/27 06:57:51;;;;;;;7.82;6.97;;;9.60;99.90;;;;;;6133571;23;20201;-72
2023/04/27 07:00:19;;;;;;;8.27;6.30;;;9.90;99.90;;;;;;6146595;23;20182;-72
2023/04/27 07:02:46;;;;;;;7.13;6.43;;;9.90;99.90;;;;;;6142736;23;20299;-72
2023/04/27 07:05:13;;;;;;;11.00;6.82;;;10.00;99.90;;;;;;6129432;23;20219;-72
2023/04/27 07:07:40;;;;;;;6.70;6.10;;;10.10;99.90;;;;;;6128140;23;20182;-72
2023/04/27 07:10:09;;;;;;;8.45;6.65;;;10.20;99.90;;;;;;6138795;23;20646;-72
2023/04/27 07:12:37;;;;;;;6.90;6.20;;;10.30;99.90;;;;;;6143226;23;20203;-72
2023/04/27 07:15:05;;;;;;;6.88;6.28;;;10.50;99.90;;;;;;6141077;23;20190;-72
2023/04/27 07:17:32;;;;;;;7.90;6.57;;;10.70;99.90;;;;;;6142217;23;20179;-72
2023/04/27 07:19:59;;;;;;;7.80;6.45;;;10.80;99.90;;;;;;6128711;23;20191;-72
2023/04/27 07:22:27;;;;;;;6.53;5.95;;;10.90;99.90;;;;;;6136801;23;20199;-72
2023/04/27 07:24:54;;;;;;;7.35;6.22;;;11.00;99.90;;;;;;6142807;23;20210;-72
2023/04/27 07:27:23;;;;;;;7.20;6.38;;;11.10;99.90;;;;;;6134298;23;20211;-72
2023/04/27 07:29:50;;;;;;;6.55;5.95;;;11.10;99.90;;;;;;6137374;23;20261;-73
2023/04/27 07:32:17;;;;;;;6.90;5.93;;;11.20;99.90;;;;;;6143905;23;20267;-73
2023/04/27 07:34:45;;;;;;;7.60;6.90;;;11.40;99.90;;;;;;6143725;23;20190;-73
2023/04/27 07:37:12;;;;;;;8.18;6.40;;;11.50;99.90;;;;;;6140101;23;20912;-73
2023/04/27 07:39:39;;;;;;;7.05;6.35;;;11.50;99.90;;;;;;6134569;23;20639;-71
2023/04/27 07:42:07;;;;;;;8.05;7.35;;;11.50;99.90;;;;;;6135423;23;20202;-72
2023/04/27 07:44:35;;;;;;;7.40;6.70;;;11.60;99.90;;;;;;6138879;23;20218;-72
2023/04/27 07:47:04;;;;;;;9.97;6.57;;;12.00;99.90;;;;;;6137481;23;20431;-72
2023/04/27 07:49:31;;;;;;;8.03;6.60;;;12.30;99.90;;;;;;6133205;23;20434;-72
2023/04/27 07:51:58;;;;;;;7.30;6.70;;;12.50;99.90;;;;;;6131746;23;20453;-72
2023/04/27 07:54:25;;;;;;;7.20;5.90;;;12.50;99.90;;;;;;6131105;23;20971;-72
2023/04/27 07:56:53;;;;;;;7.07;6.37;;;12.50;99.90;;;;;;6139199;23;20448;-72
2023/04/27 07:59:20;;;;;;;8.20;5.97;;;12.80;99.90;;;;;;6137120;23;20435;-72
2023/04/27 08:01:48;;;;;;;6.53;6.03;;;13.20;99.90;;;;;;6143170;23;20446;-72
2023/04/27 08:04:15;;;;;;;6.50;5.90;;;13.60;99.90;;;;;;6139349;23;20471;-72
2023/04/27 08:06:42;;;;;;;6.77;6.07;;;14.00;99.90;;;;;;6130483;23;20823;-74
2023/04/27 08:09:09;;;;;;;8.43;6.27;;;14.40;99.90;;;;;;6141840;23;20519;-72
2023/04/27 08:11:36;;;;;;;6.33;5.83;;;14.80;99.90;;;;;;6132210;23;20528;-72
2023/04/27 08:14:03;;;;;;;7.17;6.40;;;15.10;99.90;;;;;;6138291;23;20596;-72
2023/04/27 08:16:30;;;;;;;6.20;5.70;;;15.40;99.90;;;;;;6137938;23;20439;-72
2023/04/27 08:19:00;;;;;;;6.30;5.70;;;15.40;99.90;;;;;;6138691;23;20493;-72
2023/04/27 08:21:28;;;;;;;6.17;5.57;;;15.40;99.90;;;;;;6145343;23;20444;-72
2023/04/27 08:23:55;;;;;;;6.03;5.47;;;15.80;99.90;;;;;;6148243;23;20435;-72
2023/04/27 08:26:22;;;;;;;9.13;5.90;;;16.30;99.90;;;;;;6132449;23;20913;-72
2023/04/27 08:28:49;;;;;;;6.67;6.00;;;17.00;99.90;;;;;;6140269;23;20433;-72
2023/04/27 08:31:16;;;;;;;5.73;5.30;;;17.30;99.90;;;;;;6137478;23;21822;-72
2023/04/27 08:33:44;;;;;;;7.53;5.07;;;17.90;99.90;;;;;;6138253;23;20483;-72
2023/04/27 08:36:12;;;;;;;5.77;5.17;;;18.10;99.90;;;;;;6133022;23;20439;-73
2023/04/27 08:38:39;;;;;;;6.00;5.40;;;18.60;99.80;;;;;;6139216;23;20432;-72
2023/04/27 08:41:06;;;;;;;7.10;5.77;;;18.90;98.60;;;;;;6144766;23;20536;-72
2023/04/27 08:43:35;;;;;;;5.70;5.10;;;19.00;98.30;;;;;;6140441;23;20845;-73
2023/04/27 08:46:02;;;;;;;5.90;4.50;;;19.20;96.90;;;;;;6133750;23;20501;-73
2023/04/27 08:48:30;;;;;;;5.87;5.40;;;19.40;96.40;;;;;;6141979;23;20433;-73
2023/04/27 08:50:59;;;;;;;5.70;5.10;;;19.60;96.00;;;;;;6139436;23;20454;-73
2023/04/27 08:53:27;;;;;;;5.10;4.70;;;19.60;95.70;;;;;;6143482;23;20445;-72
2023/04/27 08:55:55;;;;;;;5.00;4.50;;;19.40;93.00;;;;;;6130541;23;20433;-73
2023/04/27 08:58:22;;;;;;;4.17;3.30;;;19.30;92.40;;;;;;6135562;23;20432;-73
2023/04/27 09:00:50;;;;;;;3.77;3.20;;;19.40;91.40;;;;;;6139116;23;20477;-73
2023/04/27 09:03:24;;;;;;;4.43;4.03;;;19.70;88.80;;;;;;6145066;23;20454;-73
2023/04/27 09:05:51;;;;;;;5.73;4.07;;;19.90;90.00;;;;;;6140627;23;20959;-73
2023/04/27 09:08:19;;;;;;;6.60;4.60;;;20.20;90.00;;;;;;6136947;23;20944;-73
2023/04/27 09:10:49;;;;;;;5.80;4.20;;;20.30;90.30;;;;;;6140378;23;20476;-73
2023/04/27 09:13:17;;;;;;;4.03;3.60;;;20.60;90.40;;;;;;6132108;23;20433;-73
2023/04/27 09:15:45;;;;;;;4.83;4.20;;;20.60;89.00;;;;;;6141038;23;20440;-73
2023/04/27 09:18:16;;;;;;;4.53;4.10;;;20.30;88.10;;;;;;6143383;23;20452;-72
2023/04/27 09:20:44;;;;;;;6.23;4.33;;;19.60;86.40;;;;;;6132726;23;20457;-73
2023/04/27 09:23:12;;;;;;;4.10;3.70;;;19.50;88.20;;;;;;6137452;23;20452;-73
2023/04/27 09:25:39;;;;;;;4.00;3.70;;;19.80;87.50;;;;;;6138260;23;20557;-73
2023/04/27 09:28:08;;;;;;;3.43;3.03;;;20.00;84.20;;;;;;6139182;23;20433;-73
2023/04/27 09:30:36;;;;;;;3.70;3.00;;;20.20;84.10;;;;;;6134816;23;20490;-74
2023/04/27 09:33:03;;;;;;;5.07;3.97;;;20.50;81.70;;;;;;6144020;23;20437;-73
2023/04/27 09:35:32;;;;;;;4.70;3.40;;;20.80;80.20;;;;;;6135338;23;20961;-74
2023/04/27 09:38:24;;;;;;;3.30;3.00;;;21.00;75.20;;;;;;6126318;23;20493;-74
2023/04/27 09:40:53;;;;;;;4.00;3.50;;;21.00;75.20;;;;;;6136991;23;20464;-73
2023/04/27 09:43:22;;;;;;;4.07;2.87;;;21.00;74.50;;;;;;6148609;23;20420;-74
2023/04/27 09:45:49;;;;;;;4.77;4.20;;;21.10;74.30;;;;;;6145002;23;20849;-73
2023/04/27 09:48:17;;;;;;;6.20;4.60;;;21.00;73.80;;;;;;6134459;23;20453;-73
2023/04/27 09:50:46;;;;;;;6.80;4.83;;;20.90;73.80;;;;;;6145291;23;20498;-73
2023/04/27 09:53:16;;;;;;;7.50;4.97;;;20.70;73.60;;;;;;6137330;23;20471;-73
2023/04/27 09:55:48;;;;;;;5.20;4.57;;;19.90;76.80;;;;;;6147632;23;20428;-74
2023/04/27 09:58:56;;;;;;;4.57;4.10;;;19.80;79.70;;;;;;6134221;23;20920;-73
2023/04/27 10:01:29;;;;;;;5.20;3.93;;;20.20;78.90;;;;;;6137081;23;20478;-74
2023/04/27 10:04:08;;;;;;;5.47;4.73;;;20.80;79.20;;;;;;6142947;23;20433;-74
2023/04/27 10:06:51;;;;;;;4.63;4.23;;;21.30;77.60;;;;;;6140858;23;20496;-73
2023/04/27 10:09:22;;;;;;;4.87;4.50;;;22.00;76.60;;;;;;6130552;23;20428;-74
2023/04/27 10:11:50;;;;;;;5.03;4.37;;;22.40;75.00;;;;;;6134614;23;20449;-74
2023/04/27 10:14:20;;;;;;;4.90;4.40;;;22.90;74.40;;;;;;6135256;23;20776;-74
2023/04/27 10:16:53;;;;;;;5.80;5.30;;;23.40;73.70;;;;;;6142748;23;20444;-74
2023/04/27 10:19:22;;;;;;;5.03;4.43;;;23.70;72.20;;;;;;6135402;23;20429;-74
2023/04/27 10:21:59;;;;;;;4.70;4.20;;;24.20;70.80;;;;;;6141869;23;20507;-74
2023/04/27 10:24:36;;;;;;;6.40;4.40;;;24.80;67.90;;;;;;6142058;23;20474;-74
2023/04/27 10:27:05;;;;;;;4.40;4.10;;;25.00;66.70;;;;;;6138979;23;20475;-74
2023/04/27 10:29:38;;;;;;;4.90;4.40;;;25.40;66.20;;;;;;6130980;23;20438;-76
2023/04/27 10:32:10;;;;;;;5.07;4.67;;;25.60;63.30;;;;;;6138107;23;21148;-75
2023/04/27 10:34:38;;;;;;;5.03;4.53;;;24.90;62.20;;;;;;6131018;23;20440;-74
2023/04/27 10:37:06;;;;;;;5.63;4.43;;;24.50;63.30;;;;;;6133128;23;20809;-74
2023/04/27 10:39:36;;;;;;;5.40;4.83;;;24.60;63.60;;;;;;6139206;23;20439;-74
2023/04/27 10:42:03;;;;;;;5.53;4.30;;;25.00;63.80;;;;;;6126259;23;20449;-74
2023/04/27 10:44:32;;;;;;;6.30;4.87;;;25.50;63.10;;;;;;6138699;23;20439;-74
2023/04/27 10:47:02;;;;;;;5.97;3.90;;;25.90;60.70;;;;;;6145074;23;20460;-74
2023/04/27 10:49:30;;;;;;;6.00;5.50;;;26.10;60.70;;;;;;6132048;23;21148;-74
2023/04/27 10:51:59;;;;;;;5.13;4.73;;;26.50;59.00;;;;;;6137114;23;20848;-72
2023/04/27 10:54:28;;;;;;;5.33;4.83;;;26.60;58.10;;;;;;6129122;23;20864;-74
2023/04/27 10:57:15;;;;;;;4.40;4.10;;;26.50;58.10;;;;;;6136691;23;20536;-74
2023/04/27 10:59:49;;;;;;;5.73;3.90;;;26.60;56.40;;;;;;6140349;23;20444;-74
2023/04/27 11:02:25;;;;;;;4.70;4.30;;;26.40;55.70;;;;;;6145416;23;20432;-74
2023/04/27 11:04:52;;;;;;;4.63;4.20;;;26.20;56.80;;;;;;6132481;23;20448;-74
2023/04/27 11:07:25;;;;;;;4.57;4.17;;;26.10;56.70;;;;;;6131476;23;20494;-74
2023/04/27 11:09:53;;;;;;;5.10;4.70;;;26.30;56.00;;;;;;6141348;23;20560;-74
2023/04/27 11:12:21;;;;;;;5.20;4.47;;;26.40;56.40;;;;;;6143446;23;20437;-73
2023/04/27 11:14:48;;;;;;;4.97;4.60;;;26.70;56.20;;;;;;6141027;23;20428;-74
2023/04/27 11:17:15;;;;;;;4.67;3.83;;;27.00;55.30;;;;;;6137679;23;20449;-73
2023/04/27 11:19:47;;;;;;;4.77;4.23;;;27.00;55.10;;;;;;6127283;23;20433;-74
2023/04/27 11:22:16;;;;;;;4.67;4.27;;;26.60;55.30;;;;;;6135323;23;20513;-74
2023/04/27 11:24:48;;;;;;;4.93;4.57;;;26.20;55.20;;;;;;6133297;23;20815;-74
2023/04/27 11:27:15;;;;;;;5.10;4.60;;;25.60;55.30;;;;;;6129121;23;20471;-74
2023/04/27 11:29:42;;;;;;;6.20;5.60;;;24.20;56.40;;;;;;6142105;23;20433;-74
2023/04/27 11:32:18;;;;;;;6.03;5.53;;;22.90;58.10;;;;;;6143180;23;20464;-73
2023/04/27 11:34:50;;;;;;;5.17;4.67;;;22.10;59.70;;;;;;6133694;23;20479;-73
2023/04/27 11:37:23;;;;;;;5.50;4.60;;;21.30;62.70;;;;;;6145679;23;20435;-73
2023/04/27 11:39:52;;;;;;;5.50;4.40;;;21.30;61.00;;;;;;6135702;23;20478;-73
2023/04/27 11:42:20;;;;;;;4.40;4.00;;;21.60;59.70;;;;;;6142620;23;20839;-74
2023/04/27 11:44:58;;;;;;;6.97;3.87;;;21.90;60.50;;;;;;6131357;23;20432;-74
2023/04/27 11:47:27;;;;;;;4.77;4.30;;;22.60;59.60;;;;;;6138872;23;21016;-74
2023/04/27 11:49:57;;;;;;;5.53;5.03;;;23.30;59.90;;;;;;6138217;23;20544;-74
2023/04/27 11:52:28;;;;;;;4.53;4.13;;;23.90;58.30;;;;;;6140826;23;20497;-73
2023/04/27 11:54:55;;;;;;;5.00;4.60;;;24.40;58.20;;;;;;6126223;23;20452;-74
2023/04/27 11:57:25;;;;;;;5.07;4.67;;;24.80;58.00;;;;;;6149136;23;20460;-73
2023/04/27 11:59:52;;;;;;;4.87;4.50;;;25.20;57.20;;;;;;6140276;23;20456;-74
2023/04/27 12:02:21;;;;;;;4.40;4.00;;;25.50;57.00;;;;;;6135233;23;20512;-74
2023/04/27 12:04:48;;;;;;;5.83;5.33;;;25.70;57.40;;;;;;6133547;23;20433;-74
2023/04/27 12:07:17;;;;;;;6.13;5.20;;;25.70;56.00;;;;;;6131075;23;20513;-73
2023/04/27 12:09:44;;;;;;;8.13;5.27;;;25.00;55.60;;;;;;6124015;23;20456;-74
2023/04/27 12:12:11;;;;;;;4.87;4.47;;;24.40;56.80;;;;;;6132686;23;20713;-73
2023/04/27 12:14:39;;;;;;;3.93;3.63;;;23.90;57.80;;;;;;6131142;23;20444;-73
2023/04/27 12:17:06;;;;;;;4.33;4.03;;;24.00;58.20;;;;;;6136295;23;20444;-74
2023/04/27 12:19:33;;;;;;;7.07;4.77;;;24.40;58.00;;;;;;6125825;23;20540;-74
2023/04/27 12:22:00;;;;;;;5.17;4.43;;;24.60;56.70;;;;;;6123305;23;20434;-74
2023/04/27 12:24:29;;;;;;;5.30;4.77;;;24.50;57.60;;;;;;6134926;23;20465;-74
2023/04/27 12:26:56;;;;;;;5.07;4.67;;;24.70;56.30;;;;;;6129537;23;20513;-74
2023/04/27 12:29:24;;;;;;;6.17;4.43;;;24.80;56.50;;;;;;6133258;23;20968;-73
2023/04/27 12:31:52;;;;;;;4.87;3.90;;;24.50;55.80;;;;;;6132792;23;20476;-73
2023/04/27 12:34:19;;;;;;;5.03;4.63;;;24.60;57.60;;;;;;6135850;23;20430;-74
2023/04/27 12:36:46;;;;;;;4.00;3.70;;;25.20;56.00;;;;;;6140965;23;20433;-74
2023/04/27 12:39:16;;;;;;;4.70;3.80;;;25.60;56.30;;;;;;6135771;23;20461;-74
2023/04/27 12:41:45;;;;;;;4.53;3.80;;;26.10;56.10;;;;;;6140437;23;20525;-74
2023/04/27 12:44:13;;;;;;;4.60;3.67;;;26.60;54.70;;;;;;6134921;23;20439;-74
2023/04/27 12:46:41;;;;;;;4.37;3.97;;;27.00;53.80;;;;;;6144040;23;20467;-74
2023/04/27 12:49:09;;;;;;;4.37;3.70;;;26.90;53.30;;;;;;6139341;23;20441;-74
2023/04/27 12:51:37;;;;;;;4.60;3.60;;;26.50;53.40;;;;;;6144920;23;20461;-74
2023/04/27 12:54:05;;;;;;;4.40;3.70;;;26.30;54.60;;;;;;6141690;23;20944;-74
2023/04/27 12:56:32;;;;;;;6.00;4.20;;;26.10;54.80;;;;;;6149127;23;20754;-74
2023/04/27 12:59:01;;;;;;;4.87;4.47;;;25.50;55.80;;;;;;6147974;23;20490;-73